Time;durP1;ratioP1;P1;durP2;ratioP2;P2;SDS_P1;SDS_P2;PMS_P1;PMS_P2;Temp;Humidity;BMP_temperature;BMP_pressure;BME280_temperature;BME280_humidity;BME280_pressure;Samples;Min_cycle;Max_cycle;Signal;HPM_P1;HPM_P2
2023/05/30 04:02:11;;;;;;;2.50;2.10;;;18.80;61.30;;;;;;5412369;22;20507;-75
2023/05/30 04:04:37;;;;;;;3.23;1.83;;;18.80;60.90;;;;;;5035544;28;20786;-75
2023/05/30 04:07:05;;;;;;;2.57;1.80;;;18.80;61.00;;;;;;5035524;28;20543;-75
2023/05/30 04:09:32;;;;;;;3.73;2.10;;;18.80;61.20;;;;;;5035433;28;20466;-75
2023/05/30 04:11:59;;;;;;;3.00;2.20;;;18.60;61.70;;;;;;5035334;28;20830;-75
2023/05/30 04:14:25;;;;;;;3.07;2.13;;;18.70;61.60;;;;;;5035661;28;20940;-75
2023/05/30 04:16:52;;;;;;;2.70;1.90;;;18.70;61.50;;;;;;5035189;28;20479;-75
2023/05/30 04:19:20;;;;;;;3.50;2.60;;;18.70;61.70;;;;;;5035241;28;20459;-75
2023/05/30 04:21:47;;;;;;;3.10;2.43;;;18.80;61.50;;;;;;5035145;28;20469;-75
2023/05/30 04:24:14;;;;;;;3.30;1.90;;;18.80;61.30;;;;;;5035151;28;20452;-75
2023/05/30 04:26:40;;;;;;;2.37;1.97;;;18.80;61.50;;;;;;5034920;28;20899;-75
2023/05/30 04:29:08;;;;;;;2.87;2.13;;;18.80;61.40;;;;;;5035070;28;20452;-75
2023/05/30 04:31:36;;;;;;;3.00;1.73;;;18.70;61.60;;;;;;5034902;28;20476;-75
2023/05/30 04:34:02;;;;;;;3.40;2.30;;;18.70;61.50;;;;;;5035011;28;20451;-75
2023/05/30 04:36:32;;;;;;;2.60;2.03;;;18.80;61.60;;;;;;5034893;28;20447;-75
2023/05/30 04:38:59;;;;;;;2.60;1.83;;;18.90;61.70;;;;;;5034499;28;20886;-75
2023/05/30 04:41:26;;;;;;;4.00;1.97;;;18.90;62.00;;;;;;5034410;28;20502;-75
2023/05/30 04:43:54;;;;;;;4.20;2.23;;;18.90;62.00;;;;;;5034715;28;20864;-75
2023/05/30 04:46:22;;;;;;;3.40;2.13;;;19.00;61.70;;;;;;5034426;28;20505;-75
2023/05/30 04:48:52;;;;;;;4.80;2.33;;;18.90;61.70;;;;;;5034658;28;20443;-75
2023/05/30 04:51:19;;;;;;;2.60;2.30;;;18.90;62.00;;;;;;5034880;28;20507;-75
2023/05/30 04:53:47;;;;;;;3.70;2.00;;;18.90;62.20;;;;;;5034319;28;20443;-75
2023/05/30 04:56:14;;;;;;;3.87;2.63;;;19.00;62.00;;;;;;5034553;28;20447;-75
2023/05/30 04:58:41;;;;;;;2.37;2.07;;;19.00;62.20;;;;;;5034416;28;20475;-75
2023/05/30 05:01:09;;;;;;;3.53;2.33;;;19.00;62.40;;;;;;5034146;28;20479;-75
2023/05/30 05:03:36;;;;;;;2.67;2.30;;;18.90;62.30;;;;;;5034390;28;20444;-75
2023/05/30 05:06:03;;;;;;;2.73;2.23;;;18.90;62.50;;;;;;5034392;28;20452;-75
2023/05/30 05:08:30;;;;;;;3.57;2.50;;;18.80;62.90;;;;;;5034310;28;20444;-75
2023/05/30 05:10:58;;;;;;;3.20;1.80;;;18.80;62.70;;;;;;5034196;28;20479;-73
2023/05/30 05:13:24;;;;;;;3.57;2.40;;;18.90;63.00;;;;;;5033896;28;20864;-75
2023/05/30 05:15:51;;;;;;;3.30;2.30;;;18.80;63.50;;;;;;5033816;28;20937;-75
2023/05/30 05:18:18;;;;;;;3.20;2.00;;;18.90;62.70;;;;;;5034768;28;20535;-75
2023/05/30 05:20:44;;;;;;;2.83;1.83;;;18.90;62.60;;;;;;5033698;28;21042;-75
2023/05/30 05:23:11;;;;;;;3.33;1.73;;;18.90;62.90;;;;;;5034026;28;20447;-75
2023/05/30 05:25:38;;;;;;;2.53;2.07;;;19.00;63.20;;;;;;5034003;28;20451;-75
2023/05/30 05:28:06;;;;;;;2.43;2.23;;;19.10;62.50;;;;;;5033949;28;20443;-75
2023/05/30 05:30:33;;;;;;;2.83;2.00;;;19.10;62.40;;;;;;5033826;28;20447;-75
2023/05/30 05:32:59;;;;;;;3.33;2.43;;;19.20;62.10;;;;;;5033849;28;20513;-75
2023/05/30 05:35:26;;;;;;;4.27;1.90;;;19.10;62.40;;;;;;5033799;28;20454;-75
2023/05/30 05:37:53;;;;;;;2.87;1.77;;;19.20;62.30;;;;;;5033657;28;20902;-75
2023/05/30 05:40:20;;;;;;;2.60;1.90;;;19.30;62.20;;;;;;5033725;28;20863;-75
2023/05/30 05:42:47;;;;;;;4.50;2.80;;;19.30;62.90;;;;;;5033749;28;20860;-75
2023/05/30 05:45:15;;;;;;;2.37;2.00;;;19.40;62.00;;;;;;5032914;28;20823;-75
2023/05/30 05:47:41;;;;;;;2.33;2.13;;;19.40;62.20;;;;;;5033528;28;20447;-78
2023/05/30 05:50:09;;;;;;;2.67;2.20;;;19.50;61.80;;;;;;5033534;28;20448;-77
2023/05/30 05:52:35;;;;;;;3.00;2.47;;;19.60;61.40;;;;;;5033503;28;20475;-78
2023/05/30 05:55:02;;;;;;;3.67;2.07;;;19.60;61.00;;;;;;5033511;28;20452;-77
2023/05/30 05:57:29;;;;;;;3.00;2.23;;;19.80;61.50;;;;;;5033422;28;20553;-78
2023/05/30 05:59:56;;;;;;;2.60;2.10;;;20.00;61.30;;;;;;5033189;28;20974;-75
2023/05/30 06:02:24;;;;;;;2.53;1.63;;;20.10;60.50;;;;;;5033070;28;20529;-77
2023/05/30 06:04:51;;;;;;;3.27;2.50;;;20.20;61.30;;;;;;5034322;28;20455;-77
2023/05/30 06:07:18;;;;;;;4.20;2.40;;;20.30;60.10;;;;;;5033395;28;20455;-76
2023/05/30 06:09:45;;;;;;;2.87;2.57;;;20.30;60.10;;;;;;5033348;28;20443;-77
2023/05/30 06:12:11;;;;;;;2.80;1.97;;;20.40;59.70;;;;;;5033252;28;20519;-77
2023/05/30 06:14:38;;;;;;;3.90;2.10;;;20.50;59.50;;;;;;5033377;28;20478;-77
2023/05/30 06:17:05;;;;;;;2.90;2.60;;;20.60;59.70;;;;;;5033375;28;20455;-76
2023/05/30 06:19:34;;;;;;;4.27;2.27;;;20.70;59.70;;;;;;5032919;28;20487;-77
2023/05/30 06:22:00;;;;;;;3.40;2.30;;;20.60;60.10;;;;;;5033175;28;20467;-77
2023/05/30 06:24:27;;;;;;;2.50;1.80;;;20.80;59.50;;;;;;5033180;28;20448;-77
2023/05/30 06:26:54;;;;;;;2.87;2.10;;;20.60;60.10;;;;;;5033329;28;20872;-77
2023/05/30 06:29:21;;;;;;;3.17;2.30;;;20.50;60.00;;;;;;5033172;28;20497;-76
2023/05/30 06:31:47;;;;;;;2.40;1.80;;;20.60;59.70;;;;;;5033049;28;20471;-76
2023/05/30 06:34:14;;;;;;;3.37;1.60;;;20.60;59.80;;;;;;5033155;28;20500;-76
2023/05/30 06:36:42;;;;;;;3.73;2.40;;;20.40;59.80;;;;;;5033097;28;20443;-76
2023/05/30 06:39:15;;;;;;;3.27;2.17;;;20.50;59.30;;;;;;5032644;28;20487;-76
2023/05/30 06:41:42;;;;;;;2.90;2.20;;;20.50;59.10;;;;;;5033111;28;20506;-76
2023/05/30 06:44:08;;;;;;;3.13;2.60;;;20.60;59.30;;;;;;5032758;28;21005;-77
2023/05/30 06:46:35;;;;;;;2.40;1.80;;;20.80;59.80;;;;;;5032660;28;20842;-77
2023/05/30 06:49:02;;;;;;;2.70;1.90;;;20.90;58.70;;;;;;5033024;28;20494;-77
2023/05/30 06:51:29;;;;;;;2.30;1.93;;;21.00;58.50;;;;;;5032957;28;20471;-77
2023/05/30 06:53:57;;;;;;;5.20;2.37;;;21.10;58.50;;;;;;5032957;28;20530;-77
2023/05/30 06:56:23;;;;;;;3.10;2.20;;;21.20;58.80;;;;;;5032917;28;20865;-77
2023/05/30 06:58:50;;;;;;;4.87;2.70;;;21.10;57.90;;;;;;5035313;28;20524;-77
2023/05/30 07:01:17;;;;;;;3.13;1.97;;;21.10;57.60;;;;;;5036391;28;20483;-76
2023/05/30 07:03:44;;;;;;;3.40;2.20;;;21.20;57.70;;;;;;5036804;28;20455;-77
2023/05/30 07:06:11;;;;;;;3.57;1.93;;;21.20;58.50;;;;;;5036421;28;21023;-77
2023/05/30 07:08:37;;;;;;;3.00;2.10;;;21.20;58.50;;;;;;5036532;28;20439;-77
2023/05/30 07:11:06;;;;;;;2.57;1.70;;;21.40;58.00;;;;;;5036467;28;20467;-77
2023/05/30 07:13:33;;;;;;;3.37;2.10;;;21.20;58.50;;;;;;5036502;28;20562;-77
2023/05/30 07:16:00;;;;;;;3.37;1.93;;;21.40;57.70;;;;;;5036317;28;20451;-77
2023/05/30 07:18:27;;;;;;;2.73;2.30;;;21.30;58.30;;;;;;5036243;28;20529;-77
2023/05/30 07:20:53;;;;;;;3.30;2.43;;;21.20;59.10;;;;;;5035883;28;21044;-76
2023/05/30 07:23:20;;;;;;;3.93;2.80;;;21.40;58.40;;;;;;5035993;28;20452;-75
2023/05/30 07:25:47;;;;;;;2.90;2.07;;;21.40;57.90;;;;;;5035859;28;20854;-77
2023/05/30 07:28:15;;;;;;;2.37;1.80;;;21.50;57.90;;;;;;5036206;28;20442;-77
2023/05/30 07:30:41;;;;;;;2.43;2.10;;;21.60;58.20;;;;;;5035742;28;20463;-76
2023/05/30 07:33:08;;;;;;;2.87;1.90;;;21.70;56.80;;;;;;5036081;28;20444;-77
2023/05/30 07:35:35;;;;;;;3.27;2.10;;;21.90;57.40;;;;;;5036073;28;20447;-77
2023/05/30 07:38:01;;;;;;;3.00;2.17;;;21.80;56.00;;;;;;5035960;28;20482;-77
2023/05/30 07:40:28;;;;;;;3.10;1.90;;;21.40;56.20;;;;;;5035880;28;20498;-77
2023/05/30 07:42:55;;;;;;;5.00;2.10;;;21.40;56.60;;;;;;5035888;28;20474;-77
2023/05/30 07:45:23;;;;;;;3.00;2.37;;;21.70;57.60;;;;;;5035854;28;20452;-77
2023/05/30 07:47:49;;;;;;;2.67;2.10;;;21.60;55.40;;;;;;5035758;28;20456;-77
2023/05/30 07:50:16;;;;;;;3.27;2.30;;;21.80;56.30;;;;;;5035708;28;20618;-77
2023/05/30 07:52:43;;;;;;;3.53;2.30;;;21.80;55.80;;;;;;5035609;28;20855;-76
2023/05/30 07:55:09;;;;;;;2.40;1.97;;;22.10;55.80;;;;;;5035422;28;20880;-76
2023/05/30 07:57:36;;;;;;;4.17;2.13;;;22.40;55.80;;;;;;5036463;28;20971;-76
2023/05/30 08:00:08;;;;;;;3.20;2.17;;;22.50;54.10;;;;;;5036049;28;20487;-77
2023/05/30 08:02:36;;;;;;;2.83;2.23;;;22.60;54.70;;;;;;5035217;28;20602;-76
2023/05/30 08:05:02;;;;;;;4.57;2.20;;;22.70;54.60;;;;;;5035528;28;20582;-77
2023/05/30 08:07:30;;;;;;;3.80;2.60;;;22.30;54.90;;;;;;5035541;28;20868;-76
2023/05/30 08:09:57;;;;;;;2.90;2.33;;;22.50;54.70;;;;;;5035033;28;20447;-76
2023/05/30 08:12:28;;;;;;;3.40;2.07;;;21.70;55.10;;;;;;5035317;28;20530;-76
2023/05/30 08:14:56;;;;;;;3.40;2.17;;;21.60;57.30;;;;;;5035361;28;20435;-77
2023/05/30 08:17:23;;;;;;;3.77;2.50;;;21.70;58.40;;;;;;5035253;28;20456;-76
2023/05/30 08:19:53;;;;;;;2.83;2.07;;;21.80;56.90;;;;;;5035198;28;20484;-77
2023/05/30 08:22:21;;;;;;;3.60;2.47;;;21.90;57.30;;;;;;5035118;28;20472;-76
2023/05/30 08:24:49;;;;;;;2.80;2.20;;;22.00;56.30;;;;;;5035246;28;20444;-76
2023/05/30 08:27:16;;;;;;;3.07;2.23;;;22.30;55.30;;;;;;5035094;28;20792;-76
2023/05/30 08:29:42;;;;;;;2.80;2.03;;;22.60;54.60;;;;;;5034799;28;20960;-77
2023/05/30 08:32:09;;;;;;;2.67;2.20;;;22.80;55.30;;;;;;5034809;28;20480;-77
2023/05/30 08:34:36;;;;;;;4.13;2.73;;;22.70;55.80;;;;;;5034943;28;20452;-77
2023/05/30 08:37:05;;;;;;;3.97;2.63;;;23.00;55.00;;;;;;5034966;28;20457;-76
2023/05/30 08:39:33;;;;;;;3.73;2.03;;;23.10;54.50;;;;;;5034814;28;20479;-77
2023/05/30 08:42:00;;;;;;;3.77;2.20;;;22.90;54.40;;;;;;5034788;28;20483;-77
2023/05/30 08:44:26;;;;;;;2.57;2.07;;;23.00;54.80;;;;;;5034846;28;20470;-77
2023/05/30 08:46:53;;;;;;;2.67;2.47;;;23.00;55.30;;;;;;5034737;28;20513;-76
2023/05/30 08:49:23;;;;;;;3.03;2.33;;;22.80;54.90;;;;;;5034376;28;20497;-76
2023/05/30 08:51:53;;;;;;;3.43;2.10;;;23.10;54.60;;;;;;5034548;28;20472;-76
2023/05/30 08:54:23;;;;;;;2.57;2.07;;;23.30;54.60;;;;;;5035686;28;20440;-77
2023/05/30 08:56:57;;;;;;;3.50;2.10;;;22.90;54.00;;;;;;5034278;28;20968;-77
2023/05/30 08:59:26;;;;;;;3.17;2.30;;;22.90;55.10;;;;;;5034140;28;21004;-77
2023/05/30 09:01:54;;;;;;;3.00;2.60;;;23.30;55.70;;;;;;5033963;28;20478;-77
2023/05/30 09:04:23;;;;;;;3.70;2.27;;;23.30;53.10;;;;;;5034398;28;20574;-77
2023/05/30 09:06:51;;;;;;;2.87;2.20;;;23.40;54.90;;;;;;5034412;28;20444;-77
2023/05/30 09:09:19;;;;;;;3.03;2.40;;;23.70;54.20;;;;;;5034344;28;20451;-77
2023/05/30 09:11:47;;;;;;;2.87;2.10;;;24.00;53.30;;;;;;5033854;28;20490;-77
2023/05/30 09:14:13;;;;;;;3.40;2.50;;;24.10;52.20;;;;;;5034178;28;20474;-77
2023/05/30 09:16:40;;;;;;;2.63;1.80;;;24.20;50.90;;;;;;5034138;28;20443;-78
2023/05/30 09:19:07;;;;;;;3.70;2.03;;;24.20;50.80;;;;;;5034081;28;20561;-76
2023/05/30 09:21:34;;;;;;;2.57;1.87;;;24.10;52.50;;;;;;5033348;28;20545;-75
2023/05/30 09:24:04;;;;;;;4.03;1.80;;;23.70;52.10;;;;;;5034033;28;20816;-75
2023/05/30 09:26:32;;;;;;;4.37;2.33;;;23.50;53.40;;;;;;5033730;28;20940;-75
2023/05/30 09:29:10;;;;;;;2.80;1.90;;;24.00;52.70;;;;;;5034557;28;20459;-75
2023/05/30 09:31:38;;;;;;;3.20;2.10;;;23.90;51.70;;;;;;5033821;28;20525;-76
2023/05/30 09:34:06;;;;;;;4.30;2.50;;;23.90;51.80;;;;;;5033840;28;20543;-76
2023/05/30 09:36:33;;;;;;;2.60;1.97;;;24.20;51.50;;;;;;5033795;28;20889;-76
2023/05/30 09:39:02;;;;;;;3.53;2.47;;;24.50;51.30;;;;;;5033744;28;20537;-77
2023/05/30 09:41:29;;;;;;;2.40;1.70;;;24.20;51.30;;;;;;5033700;28;20486;-77
2023/05/30 09:43:57;;;;;;;3.40;2.00;;;24.00;51.50;;;;;;5033737;28;20447;-77
2023/05/30 09:46:28;;;;;;;2.80;1.73;;;24.10;51.90;;;;;;5034212;28;20477;-77
2023/05/30 09:48:55;;;;;;;2.20;1.60;;;24.20;52.20;;;;;;5034757;28;20835;-76
2023/05/30 09:51:25;;;;;;;3.53;2.13;;;24.30;52.20;;;;;;5033169;28;20972;-76
2023/05/30 09:53:56;;;;;;;2.97;2.20;;;24.40;50.50;;;;;;5033578;28;20483;-77
2023/05/30 09:56:34;;;;;;;2.90;1.90;;;24.50;51.00;;;;;;5033504;28;20447;-77
2023/05/30 09:59:02;;;;;;;2.30;1.80;;;24.50;51.00;;;;;;5033431;28;20525;-76
2023/05/30 10:01:37;;;;;;;3.40;1.80;;;24.70;50.60;;;;;;5032977;28;20493;-76
2023/05/30 10:04:12;;;;;;;3.40;2.17;;;24.80;51.00;;;;;;5033444;28;20900;-76
2023/05/30 10:06:41;;;;;;;2.93;1.70;;;24.90;49.90;;;;;;5033505;28;20942;-76
2023/05/30 10:09:08;;;;;;;2.80;2.10;;;24.80;50.60;;;;;;5033043;28;20944;-77
2023/05/30 10:11:36;;;;;;;3.23;2.33;;;24.70;50.00;;;;;;5033255;28;20463;-77
2023/05/30 10:14:03;;;;;;;2.90;2.17;;;24.70;50.20;;;;;;5041067;23;20545;-76
2023/05/30 10:16:33;;;;;;;3.43;2.40;;;24.50;50.60;;;;;;5032880;28;20982;-76
2023/05/30 10:19:04;;;;;;;4.20;1.93;;;24.50;51.00;;;;;;5033171;28;20479;-76
2023/05/30 10:21:37;;;;;;;2.33;1.93;;;24.90;50.00;;;;;;5033290;28;20431;-76
2023/05/30 10:24:05;;;;;;;2.97;1.97;;;24.70;49.90;;;;;;5033395;28;20483;-76
2023/05/30 10:26:36;;;;;;;3.50;1.80;;;24.60;49.80;;;;;;5033137;28;20451;-76
2023/05/30 10:29:06;;;;;;;2.43;1.90;;;24.50;50.90;;;;;;5033161;28;20431;-76
2023/05/30 10:31:35;;;;;;;3.50;1.83;;;24.70;50.60;;;;;;5033859;28;20436;-78
2023/05/30 10:34:06;;;;;;;3.10;2.33;;;24.60;51.00;;;;;;5037155;28;20479;-76
2023/05/30 10:36:35;;;;;;;2.60;1.97;;;24.80;51.20;;;;;;5037298;28;20432;-76
2023/05/30 10:39:16;;;;;;;3.43;1.90;;;24.70;49.70;;;;;;5037066;28;20487;-76
2023/05/30 10:41:49;;;;;;;3.93;2.17;;;24.90;49.80;;;;;;5036781;28;20920;-77
2023/05/30 10:44:27;;;;;;;2.50;2.03;;;25.00;49.70;;;;;;5036954;28;20846;-76
2023/05/30 10:47:00;;;;;;;2.93;2.07;;;24.90;49.60;;;;;;5037095;28;20432;-76
2023/05/30 10:49:30;;;;;;;4.60;2.03;;;24.80;49.40;;;;;;5037124;28;20431;-77
2023/05/30 10:52:02;;;;;;;2.30;1.70;;;25.00;48.40;;;;;;5036915;28;20497;-77
2023/05/30 10:54:32;;;;;;;3.20;1.97;;;25.10;48.80;;;;;;5036902;28;20474;-77
2023/05/30 10:56:59;;;;;;;4.50;2.17;;;25.40;49.10;;;;;;5036851;28;20431;-76
2023/05/30 10:59:26;;;;;;;2.73;1.80;;;25.60;49.70;;;;;;5036367;28;20841;-76
2023/05/30 11:02:00;;;;;;;2.10;1.63;;;25.80;49.60;;;;;;5036333;28;20789;-76
2023/05/30 11:04:34;;;;;;;4.03;2.00;;;25.80;47.90;;;;;;5036703;28;20467;-76
2023/05/30 11:07:02;;;;;;;3.23;1.83;;;25.40;50.10;;;;;;5036680;28;20440;-76
2023/05/30 11:09:29;;;;;;;4.37;2.33;;;25.20;48.90;;;;;;5036569;28;20823;-76
2023/05/30 11:11:57;;;;;;;2.97;2.00;;;25.50;50.00;;;;;;5036243;28;20513;-75
2023/05/30 11:14:28;;;;;;;4.60;2.27;;;26.00;49.80;;;;;;5036208;28;20479;-77
2023/05/30 11:17:01;;;;;;;2.60;2.10;;;26.20;48.60;;;;;;5036774;28;20447;-76
2023/05/30 11:19:28;;;;;;;3.20;2.10;;;26.30;47.60;;;;;;5036780;28;20528;-76
2023/05/30 11:21:58;;;;;;;2.53;2.00;;;26.30;48.30;;;;;;5036405;28;20486;-77
2023/05/30 11:24:26;;;;;;;2.77;1.90;;;26.40;47.20;;;;;;5037145;28;20470;-76
2023/05/30 11:26:57;;;;;;;2.93;2.23;;;26.30;47.10;;;;;;5036505;28;20458;-77
2023/05/30 11:29:35;;;;;;;2.43;1.80;;;25.90;47.70;;;;;;5036106;28;20463;-77
2023/05/30 11:32:02;;;;;;;2.67;1.60;;;26.00;48.80;;;;;;5036185;28;20497;-76
2023/05/30 11:34:29;;;;;;;3.87;2.10;;;26.00;47.10;;;;;;5036003;28;20479;-76
2023/05/30 11:36:58;;;;;;;2.53;1.70;;;25.70;46.50;;;;;;5035802;28;20956;-74
2023/05/30 11:39:25;;;;;;;2.57;1.63;;;25.80;46.80;;;;;;5035769;28;20475;-74
2023/05/30 11:41:52;;;;;;;2.50;1.80;;;25.70;47.70;;;;;;5035696;28;20936;-74
2023/05/30 11:44:19;;;;;;;3.13;1.90;;;25.60;46.80;;;;;;5035172;28;20478;-74
2023/05/30 11:46:57;;;;;;;2.83;1.47;;;25.70;47.30;;;;;;5036059;28;20798;-75
2023/05/30 11:49:23;;;;;;;3.27;1.70;;;25.90;47.70;;;;;;5035787;28;20848;-75
2023/05/30 11:51:51;;;;;;;2.93;1.90;;;26.10;47.90;;;;;;5035875;28;20505;-76
2023/05/30 11:54:19;;;;;;;3.40;1.83;;;26.20;47.90;;;;;;5035424;28;20476;-77
2023/05/30 11:56:47;;;;;;;2.40;2.07;;;26.30;45.80;;;;;;5035779;28;20534;-76
2023/05/30 11:59:18;;;;;;;4.67;2.10;;;26.40;46.60;;;;;;5035690;28;20827;-76
2023/05/30 12:01:59;;;;;;;3.03;1.83;;;26.30;46.40;;;;;;5035624;28;20435;-76
2023/05/30 12:04:27;;;;;;;2.30;1.50;;;26.40;47.50;;;;;;5035479;28;20471;-76
2023/05/30 12:06:58;;;;;;;2.30;1.77;;;26.50;45.50;;;;;;5035322;28;20444;-76
2023/05/30 12:09:26;;;;;;;3.43;1.60;;;26.40;44.40;;;;;;5035432;28;20523;-75
2023/05/30 12:11:57;;;;;;;3.60;1.80;;;26.50;46.10;;;;;;5035394;28;20542;-76
2023/05/30 12:14:37;;;;;;;2.93;1.53;;;26.50;46.40;;;;;;5035023;28;20479;-76
2023/05/30 12:17:09;;;;;;;2.63;1.87;;;26.50;46.90;;;;;;5035320;28;20432;-75
2023/05/30 12:19:36;;;;;;;2.47;1.50;;;26.70;46.30;;;;;;5035266;28;20468;-75
2023/05/30 12:22:03;;;;;;;3.00;1.70;;;26.40;46.90;;;;;;5035163;28;20447;-76
2023/05/30 12:24:35;;;;;;;3.07;2.00;;;26.50;46.60;;;;;;5035141;28;20558;-75
2023/05/30 12:27:03;;;;;;;3.80;2.80;;;26.60;45.70;;;;;;5034886;28;21001;-75
2023/05/30 12:29:32;;;;;;;2.67;1.53;;;26.70;45.60;;;;;;5035098;28;20491;-76
2023/05/30 12:32:00;;;;;;;3.17;1.60;;;26.80;46.00;;;;;;5035015;28;20448;-76
2023/05/30 12:34:37;;;;;;;2.83;1.77;;;27.20;45.20;;;;;;5034645;28;20475;-75
2023/05/30 12:37:03;;;;;;;3.07;1.67;;;27.00;45.40;;;;;;5034969;28;20462;-75
2023/05/30 12:39:32;;;;;;;2.87;1.70;;;26.80;45.40;;;;;;5034504;28;21042;-75
2023/05/30 12:41:59;;;;;;;3.27;2.10;;;26.70;45.50;;;;;;5034837;28;20450;-75
2023/05/30 12:44:26;;;;;;;3.50;1.70;;;26.20;44.80;;;;;;5034722;28;20463;-75
2023/05/30 12:47:01;;;;;;;2.97;1.80;;;26.30;46.20;;;;;;5034778;28;20467;-76
2023/05/30 12:49:28;;;;;;;3.33;1.60;;;26.60;45.60;;;;;;5034760;28;20435;-76
2023/05/30 12:51:55;;;;;;;2.87;2.07;;;26.40;44.80;;;;;;5034698;28;20450;-76
2023/05/30 12:54:26;;;;;;;2.90;1.60;;;26.20;45.50;;;;;;5034329;28;20467;-75
2023/05/30 12:56:54;;;;;;;2.43;1.63;;;26.10;46.30;;;;;;5033800;28;20490;-76
2023/05/30 12:59:20;;;;;;;2.23;1.43;;;26.30;46.00;;;;;;5034890;28;20447;-76
2023/05/30 13:01:47;;;;;;;2.80;1.83;;;26.60;46.40;;;;;;5034715;28;20501;-76
2023/05/30 13:04:14;;;;;;;3.10;1.50;;;26.50;44.00;;;;;;5034774;28;20509;-76
2023/05/30 13:06:40;;;;;;;2.37;2.17;;;26.60;45.00;;;;;;5034609;28;20447;-76
2023/05/30 13:09:07;;;;;;;2.53;1.83;;;26.80;45.50;;;;;;5034215;28;20855;-76
2023/05/30 13:11:34;;;;;;;2.20;1.70;;;27.00;43.30;;;;;;5034367;28;20448;-76
2023/05/30 13:14:02;;;;;;;3.40;1.93;;;27.20;43.30;;;;;;5033996;28;20486;-75
2023/05/30 13:16:28;;;;;;;2.17;1.50;;;27.20;44.60;;;;;;5034504;28;20448;-75
2023/05/30 13:18:55;;;;;;;3.80;2.13;;;26.80;44.30;;;;;;5034394;28;20443;-75
2023/05/30 13:21:23;;;;;;;2.80;1.60;;;26.70;44.10;;;;;;5034787;28;20483;-75
2023/05/30 13:23:50;;;;;;;2.37;1.87;;;26.90;44.20;;;;;;5034532;28;20499;-76
2023/05/30 13:26:16;;;;;;;3.30;1.90;;;26.80;44.40;;;;;;5034238;28;20443;-76
2023/05/30 13:28:43;;;;;;;2.20;1.77;;;26.80;44.90;;;;;;5034070;28;20447;-76
2023/05/30 13:31:11;;;;;;;2.80;1.70;;;26.90;44.50;;;;;;5034204;28;20443;-76
2023/05/30 13:33:38;;;;;;;2.63;1.73;;;27.00;44.00;;;;;;5034072;28;20533;-76
2023/05/30 13:36:05;;;;;;;3.33;1.70;;;27.20;43.40;;;;;;5034114;28;20538;-76
2023/05/30 13:38:31;;;;;;;2.93;1.80;;;27.00;44.10;;;;;;5033855;28;20447;-76
2023/05/30 13:40:58;;;;;;;2.83;2.03;;;26.70;45.90;;;;;;5033646;28;20487;-76
2023/05/30 13:43:25;;;;;;;2.70;1.60;;;26.60;44.30;;;;;;5033608;28;20535;-76
2023/05/30 13:45:52;;;;;;;2.77;1.57;;;26.60;45.70;;;;;;5033372;28;20435;-76
2023/05/30 13:48:21;;;;;;;2.70;1.80;;;26.60;44.50;;;;;;5034093;28;20455;-76
2023/05/30 13:50:48;;;;;;;3.00;1.67;;;26.60;45.20;;;;;;5034355;28;20905;-76
2023/05/30 13:53:15;;;;;;;3.27;2.00;;;26.50;45.00;;;;;;5033325;28;20467;-76
2023/05/30 13:55:41;;;;;;;3.10;1.43;;;26.40;44.70;;;;;;5033688;28;20451;-76
2023/05/30 13:58:08;;;;;;;2.63;1.70;;;26.50;45.10;;;;;;5033577;28;20501;-76
2023/05/30 14:00:35;;;;;;;3.60;1.63;;;26.30;44.90;;;;;;5033334;28;20479;-76
2023/05/30 14:03:03;;;;;;;3.03;1.70;;;26.20;45.50;;;;;;5033082;28;20965;-76
2023/05/30 14:05:31;;;;;;;3.30;1.37;;;26.10;46.20;;;;;;5033385;28;20455;-75
2023/05/30 14:07:58;;;;;;;5.23;4.60;;;26.40;46.70;;;;;;5033003;28;20522;-76
2023/05/30 14:10:25;;;;;;;3.67;3.30;;;26.50;45.40;;;;;;5033186;28;20499;-76
2023/05/30 14:12:52;;;;;;;3.67;3.03;;;26.80;45.20;;;;;;5033083;28;20451;-77
2023/05/30 14:15:19;;;;;;;2.93;2.40;;;26.90;44.00;;;;;;5032991;28;20914;-76
2023/05/30 14:17:47;;;;;;;3.30;2.17;;;27.00;45.00;;;;;;5033273;28;20470;-76
2023/05/30 14:20:14;;;;;;;3.07;1.80;;;27.00;45.70;;;;;;5033186;28;20566;-76
2023/05/30 14:22:42;;;;;;;2.30;1.93;;;26.70;44.40;;;;;;5033202;28;20546;-76
2023/05/30 14:25:09;;;;;;;4.87;2.27;;;26.70;44.90;;;;;;5033051;28;20463;-76
2023/05/30 14:27:36;;;;;;;3.20;2.40;;;26.70;45.40;;;;;;5033119;28;20453;-76
2023/05/30 14:30:04;;;;;;;3.70;2.57;;;26.60;45.90;;;;;;5033120;28;20518;-76
2023/05/30 14:32:31;;;;;;;2.40;2.03;;;26.50;45.50;;;;;;5033110;28;20824;-76
2023/05/30 14:34:58;;;;;;;3.20;2.00;;;26.90;44.40;;;;;;5033073;28;20474;-76
2023/05/30 14:37:25;;;;;;;2.30;1.90;;;27.30;45.80;;;;;;5033076;28;20514;-75
2023/05/30 14:39:53;;;;;;;2.67;1.53;;;27.60;44.20;;;;;;5032953;28;20447;-75
2023/05/30 14:42:20;;;;;;;2.87;1.67;;;27.70;43.20;;;;;;5033018;28;20869;-76
2023/05/30 14:44:46;;;;;;;12.90;9.57;;;27.70;43.20;;;;;;5032922;28;20566;-76
2023/05/30 14:47:13;;;;;;;2.40;1.57;;;27.60;44.20;;;;;;5032850;28;20455;-76
2023/05/30 14:49:39;;;;;;;3.17;1.83;;;27.70;43.80;;;;;;5032597;28;20857;-75
2023/05/30 14:52:06;;;;;;;2.83;1.70;;;27.90;44.10;;;;;;5032595;28;20995;-76
2023/05/30 14:54:33;;;;;;;4.27;2.17;;;28.00;42.60;;;;;;5032881;28;20550;-75
2023/05/30 14:57:02;;;;;;;2.47;1.70;;;27.90;43.10;;;;;;5032649;28;20446;-76
2023/05/30 14:59:29;;;;;;;3.10;1.40;;;27.70;43.30;;;;;;5032912;28;20487;-75
2023/05/30 15:01:55;;;;;;;3.03;1.80;;;27.60;43.50;;;;;;5032497;28;20475;-76
2023/05/30 15:04:22;;;;;;;4.50;1.90;;;27.20;43.70;;;;;;5032721;28;20467;-75
2023/05/30 15:06:49;;;;;;;3.23;2.00;;;27.30;44.40;;;;;;5032720;28;20443;-75
2023/05/30 15:09:15;;;;;;;2.80;1.93;;;27.50;44.20;;;;;;5032715;28;20454;-76
2023/05/30 15:11:42;;;;;;;2.30;1.43;;;27.70;43.70;;;;;;5032865;28;20451;-76
2023/05/30 15:14:10;;;;;;;2.80;1.90;;;28.00;43.00;;;;;;5032623;28;20494;-76
2023/05/30 15:16:37;;;;;;;5.10;1.73;;;28.00;42.10;;;;;;5032724;28;20443;-76
2023/05/30 15:19:04;;;;;;;2.53;1.70;;;28.00;42.60;;;;;;5034237;28;20545;-75
2023/05/30 15:21:32;;;;;;;3.07;1.70;;;27.90;43.00;;;;;;5036504;28;20574;-75
2023/05/30 15:23:59;;;;;;;3.00;1.80;;;27.70;42.50;;;;;;5036310;28;20471;-76
2023/05/30 15:26:27;;;;;;;2.77;1.77;;;27.80;42.40;;;;;;5035980;28;20956;-75
2023/05/30 15:28:53;;;;;;;2.60;1.60;;;27.40;42.50;;;;;;5037038;28;20489;-75
2023/05/30 15:31:23;;;;;;;3.07;1.70;;;27.40;42.70;;;;;;5035865;28;20843;-75
2023/05/30 15:33:50;;;;;;;3.20;2.20;;;27.30;43.50;;;;;;5036095;28;20463;-75
2023/05/30 15:36:17;;;;;;;3.27;1.40;;;26.90;44.10;;;;;;5036103;28;20451;-75
2023/05/30 15:38:44;;;;;;;2.43;1.73;;;27.00;44.40;;;;;;5036130;28;20439;-75
2023/05/30 15:41:10;;;;;;;2.73;1.70;;;26.90;42.80;;;;;;5035882;28;20549;-75
2023/05/30 15:43:37;;;;;;;3.50;2.00;;;27.00;42.80;;;;;;5035527;28;21030;-75
2023/05/30 15:46:05;;;;;;;2.00;1.37;;;27.00;43.30;;;;;;5035901;28;20447;-76
2023/05/30 15:48:33;;;;;;;2.73;1.73;;;26.90;43.30;;;;;;5035783;28;20455;-75
2023/05/30 15:51:00;;;;;;;4.07;1.70;;;26.90;43.90;;;;;;5035858;28;20447;-75
2023/05/30 15:53:28;;;;;;;3.13;1.70;;;26.90;43.20;;;;;;5035838;28;20471;-74
2023/05/30 15:55:55;;;;;;;2.90;1.53;;;26.80;43.70;;;;;;5035770;28;20474;-75
2023/05/30 15:58:21;;;;;;;3.67;1.67;;;26.80;43.70;;;;;;5035720;28;20474;-75
2023/05/30 16:00:48;;;;;;;2.90;1.43;;;26.70;43.40;;;;;;5035539;28;20817;-76
2023/05/30 16:03:15;;;;;;;2.50;1.60;;;26.60;43.30;;;;;;5035549;28;20554;-76
2023/05/30 16:05:43;;;;;;;2.87;1.67;;;26.50;43.20;;;;;;5035527;28;20454;-75
2023/05/30 16:08:10;;;;;;;2.83;1.47;;;26.40;43.60;;;;;;5035386;28;20444;-75
2023/05/30 16:10:37;;;;;;;3.10;1.77;;;26.30;43.60;;;;;;5035436;28;20456;-76
2023/05/30 16:13:04;;;;;;;2.37;1.80;;;26.20;44.40;;;;;;5058984;22;20464;-72
2023/05/30 16:15:32;;;;;;;4.17;1.43;;;26.20;43.90;;;;;;5035664;28;20510;-74
2023/05/30 16:17:59;;;;;;;3.10;1.53;;;26.20;44.10;;;;;;5035424;28;20447;-74
2023/05/30 16:20:25;;;;;;;2.47;1.60;;;26.10;43.90;;;;;;5035260;28;20495;-74
2023/05/30 16:22:53;;;;;;;2.70;1.60;;;26.10;43.90;;;;;;5035282;28;20448;-74
2023/05/30 16:25:20;;;;;;;3.20;1.60;;;26.20;43.40;;;;;;5015700;28;20456;-74
2023/05/30 16:27:47;;;;;;;3.50;2.03;;;26.10;43.60;;;;;;5015457;28;20584;-74
2023/05/30 16:30:13;;;;;;;2.20;1.43;;;26.00;43.30;;;;;;5015196;28;20499;-74
2023/05/30 16:32:40;;;;;;;3.07;1.70;;;25.90;43.90;;;;;;5015367;28;20445;-74
2023/05/30 16:35:07;;;;;;;2.60;1.60;;;25.80;43.60;;;;;;5015278;28;20476;-74
2023/05/30 16:37:34;;;;;;;2.30;1.77;;;25.80;44.70;;;;;;5015245;28;20506;-74
2023/05/30 16:40:02;;;;;;;3.40;1.60;;;25.80;44.40;;;;;;5015298;28;20464;-74
2023/05/30 16:42:29;;;;;;;3.07;1.50;;;26.00;43.90;;;;;;5015159;28;20566;-74
2023/05/30 16:44:56;;;;;;;2.20;1.70;;;26.10;43.90;;;;;;5015088;28;20465;-74
2023/05/30 16:47:22;;;;;;;3.40;1.70;;;25.90;43.20;;;;;;5015055;28;20444;-74
2023/05/30 16:49:49;;;;;;;2.23;1.50;;;26.00;43.60;;;;;;5015043;28;20449;-73
2023/05/30 16:52:16;;;;;;;2.43;1.70;;;25.60;44.00;;;;;;5014971;28;20445;-74